Airport View

Enter ICAO identifier to see the current METAR for that AWOS.

KFNL for example

KGGW 271653Z AUTO 13007KT 10SM CLR 22/13 A3000 RMK AO2 SLP154 T02220128

27 Aug 2014 17:07

Frequency: 135.175

Phone: 406-228-8294

Other Area AWOS: KOLF - KJDN - KPO1 - CWKO

TAF KGGW 271138Z 2712/2812 11010KT P6SM SKC FM271800 20006KT P6SM SKC